Raytown, Missouri
Current Conditions -  °F | °C
As of 11:53 AM on Friday 31 Oct 2014 (Local Time) from KLXT Reporting Station
Clear Clear  
Wind Chill: 32°   Ceiling: Unl
Heat Index: 40°   Visibility: 10mi
Dew Point: 20°   Wind: 14mph
Humidity: 45%   Direction: 350°N
Pressure: 30.49"   Gusts: 24mph
Location:  39.01°N, 94.46°W
Report Text: KLXT 311653Z AUTO 35012G21KT 10SM CLR 04/M07 A3049 RMK AO2 SLP329 T00441067
Loading
Personal Weather Stations






























Interactive Weather Map
Tropical Storm Tracking
New forecast layout! Learn more

10-Day Weather Forecast

Advertisements
Track Severe Weather on mobile